Time,TemperatureF,DewpointF,PressureIn,WindDirection,WindDirectionDegrees,WindSpeedMPH,WindSpeedGustMPH,Humidity,HourlyPrecipIn,Conditions,Clouds,dailyrainin,SoftwareType,DateUTC
2013-04-21 00:01:00,46.6,34.0,30.21,WNW,300,3.0,7.0,61,0.00,,,0.00,weatherlink.com 1.10,2013-04-21 04:01:00,
2013-04-21 00:17:00,45.4,32.0,30.22,NNW,334,7.0,11.0,60,0.00,,,0.00,weatherlink.com 1.10,2013-04-21 04:17:00,
2013-04-21 00:31:00,44.6,31.0,30.23,West,262,6.0,9.0,59,0.00,,,0.00,weatherlink.com 1.10,2013-04-21 04:31:00,
2013-04-21 00:46:00,44.1,30.0,30.25,WNW,285,3.0,7.0,59,0.00,,,0.00,weatherlink.com 1.10,2013-04-21 04:46:00,
2013-04-21 01:01:00,43.2,29.0,30.25,SW,221,3.0,10.0,57,0.00,,,0.00,weatherlink.com 1.10,2013-04-21 05:01:00,
2013-04-21 01:17:00,42.3,27.0,30.26,West,266,3.0,9.0,55,0.00,,,0.00,weatherlink.com 1.10,2013-04-21 05:17:00,
2013-04-21 01:32:00,41.7,27.0,30.27,WNW,285,1.0,7.0,56,0.00,,,0.00,weatherlink.com 1.10,2013-04-21 05:32:00,
2013-04-21 01:47:00,41.3,27.0,30.28,West,267,3.0,6.0,57,0.00,,,0.00,weatherlink.com 1.10,2013-04-21 05:47:00,
2013-04-21 02:02:00,40.8,28.0,30.29,NNW,336,4.0,7.0,60,0.00,,,0.00,weatherlink.com 1.10,2013-04-21 06:02:00,
2013-04-21 02:17:00,40.5,27.0,30.29,NW,307,0.0,8.0,60,0.00,,,0.00,weatherlink.com 1.10,2013-04-21 06:17:00,
2013-04-21 02:32:00,39.7,27.0,30.31,West,278,3.0,9.0,61,0.00,,,0.00,weatherlink.com 1.10,2013-04-21 06:32:00,
2013-04-21 02:47:00,39.1,27.0,30.32,SW,232,3.0,6.0,63,0.00,,,0.00,weatherlink.com 1.10,2013-04-21 06:47:00,
2013-04-21 03:02:00,38.7,26.0,30.32,WNW,283,3.0,6.0,61,0.00,,,0.00,weatherlink.com 1.10,2013-04-21 07:02:00,
2013-04-21 03:17:00,38.2,26.0,30.33,NNE,20,1.0,6.0,61,0.00,,,0.00,weatherlink.com 1.10,2013-04-21 07:17:00,
2013-04-21 03:32:00,38.0,25.0,30.33,West,262,3.0,7.0,61,0.00,,,0.00,weatherlink.com 1.10,2013-04-21 07:32:00,
2013-04-21 03:47:00,37.8,25.0,30.33,WSW,242,4.0,8.0,60,0.00,,,0.00,weatherlink.com 1.10,2013-04-21 07:47:00,
2013-04-21 04:02:00,37.5,24.0,30.34,WSW,245,3.0,8.0,59,0.00,,,0.00,weatherlink.com 1.10,2013-04-21 08:02:00,
2013-04-21 04:17:00,37.2,24.0,30.34,WSW,248,6.0,9.0,59,0.00,,,0.00,weatherlink.com 1.10,2013-04-21 08:17:00,
2013-04-21 04:32:00,36.9,24.0,30.36,WSW,247,1.0,6.0,60,0.00,,,0.00,weatherlink.com 1.10,2013-04-21 08:32:00,
2013-04-21 04:47:00,36.7,24.0,30.37,WNW,297,5.0,7.0,61,0.00,,,0.00,weatherlink.com 1.10,2013-04-21 08:47:00,
2013-04-21 05:02:00,37.0,24.0,30.37,West,271,4.0,11.0,60,0.00,,,0.00,weatherlink.com 1.10,2013-04-21 09:02:00,
2013-04-21 05:17:00,-999.0,-99.9,30.38,North,-999,-999.0,-999.0,-999,0.00,,,0.00,weatherlink.com 1.10,2013-04-21 09:17:00,
2013-04-21 05:33:00,-999.0,-99.9,30.39,North,-999,-999.0,-999.0,-999,0.00,,,0.00,weatherlink.com 1.10,2013-04-21 09:33:00,
2013-04-21 05:48:00,-999.0,-99.9,30.40,North,-999,-999.0,-999.0,-999,0.00,,,0.00,weatherlink.com 1.10,2013-04-21 09:48:00,
2013-04-21 06:03:00,-999.0,-99.9,30.41,North,-999,-999.0,-999.0,-999,0.00,,,0.00,weatherlink.com 1.10,2013-04-21 10:03:00,
2013-04-21 06:18:00,-999.0,-99.9,30.42,North,-999,-999.0,-999.0,-999,0.00,,,0.00,weatherlink.com 1.10,2013-04-21 10:18:00,
2013-04-21 06:33:00,-999.0,-99.9,30.44,North,-999,-999.0,-999.0,-999,0.00,,,0.00,weatherlink.com 1.10,2013-04-21 10:33:00,
2013-04-21 06:48:00,36.2,24.0,30.44,West,274,2.0,4.0,61,0.00,,,0.00,weatherlink.com 1.10,2013-04-21 10:48:00,
2013-04-21 07:03:00,36.4,24.0,30.45,West,266,2.0,5.0,61,0.00,,,0.00,weatherlink.com 1.10,2013-04-21 11:03:00,
2013-04-21 07:18:00,37.2,25.0,30.46,WNW,297,1.0,5.0,62,0.00,,,0.00,weatherlink.com 1.10,2013-04-21 11:18:00,
2013-04-21 07:33:00,37.7,25.0,30.47,SW,226,1.0,4.0,60,0.00,,,0.00,weatherlink.com 1.10,2013-04-21 11:33:00,
2013-04-21 07:48:00,38.1,24.0,30.48,WSW,253,2.0,5.0,58,0.00,,,0.00,weatherlink.com 1.10,2013-04-21 11:48:00,
2013-04-21 08:03:00,39.1,25.0,30.48,West,264,2.0,7.0,57,0.00,,,0.00,weatherlink.com 1.10,2013-04-21 12:03:00,
2013-04-21 08:18:00,40.2,25.0,30.49,WNW,283,1.0,6.0,56,0.00,,,0.00,weatherlink.com 1.10,2013-04-21 12:18:00,
2013-04-21 08:33:00,40.7,25.0,30.49,SW,235,2.0,5.0,55,0.00,,,0.00,weatherlink.com 1.10,2013-04-21 12:33:00,
2013-04-21 08:48:00,41.2,26.0,30.49,NNW,338,2.0,5.0,54,0.00,,,0.00,weatherlink.com 1.10,2013-04-21 12:48:00,
2013-04-21 09:03:00,41.7,26.0,30.49,West,266,3.0,6.0,53,0.00,,,0.00,weatherlink.com 1.10,2013-04-21 13:03:00,
2013-04-21 09:18:00,42.9,26.0,30.49,WSW,255,2.0,7.0,51,0.00,,,0.00,weatherlink.com 1.10,2013-04-21 13:18:00,
2013-04-21 09:33:00,43.2,26.0,30.50,SE,124,3.0,5.0,52,0.00,,,0.00,weatherlink.com 1.10,2013-04-21 13:33:00,
2013-04-21 09:48:00,44.2,26.0,30.50,SW,228,0.0,4.0,49,0.00,,,0.00,weatherlink.com 1.10,2013-04-21 13:48:00,
2013-04-21 10:03:00,45.1,27.0,30.51,ESE,105,2.0,4.0,49,0.00,,,0.00,weatherlink.com 1.10,2013-04-21 14:03:00,
2013-04-21 10:18:00,45.4,28.0,30.52,WSW,249,1.0,6.0,50,0.00,,,0.00,weatherlink.com 1.10,2013-04-21 14:18:00,
2013-04-21 10:33:00,46.2,27.0,30.52,West,263,2.0,6.0,48,0.00,,,0.00,weatherlink.com 1.10,2013-04-21 14:33:00,
2013-04-21 10:48:00,46.5,27.0,30.52,NNW,327,0.0,7.0,47,0.00,,,0.00,weatherlink.com 1.10,2013-04-21 14:48:00,
2013-04-21 11:03:00,48.5,28.0,30.52,ENE,74,1.0,3.0,45,0.00,,,0.00,weatherlink.com 1.10,2013-04-21 15:03:00,
2013-04-21 11:18:00,48.6,28.0,30.52,WNW,283,1.0,4.0,45,0.00,,,0.00,weatherlink.com 1.10,2013-04-21 15:18:00,
2013-04-21 11:33:00,49.3,27.0,30.53,West,280,2.0,6.0,43,0.00,,,0.00,weatherlink.com 1.10,2013-04-21 15:33:00,
2013-04-21 11:48:00,49.4,28.0,30.53,ESE,114,6.0,6.0,43,0.00,,,0.00,weatherlink.com 1.10,2013-04-21 15:48:00,
2013-04-21 12:04:00,50.8,28.0,30.53,WNW,290,1.0,4.0,42,0.00,,,0.00,weatherlink.com 1.10,2013-04-21 16:04:00,
2013-04-21 12:19:00,51.3,29.0,30.53,WNW,298,1.0,5.0,42,0.00,,,0.00,weatherlink.com 1.10,2013-04-21 16:19:00,
2013-04-21 12:34:00,51.3,28.0,30.53,SSW,195,1.0,6.0,41,0.00,,,0.00,weatherlink.com 1.10,2013-04-21 16:34:00,
2013-04-21 12:49:00,53.2,29.0,30.52,SE,139,1.0,4.0,40,0.00,,,0.00,weatherlink.com 1.10,2013-04-21 16:49:00,
2013-04-21 13:04:00,52.1,31.0,30.52,WSW,252,2.0,3.0,45,0.00,,,0.00,weatherlink.com 1.10,2013-04-21 17:04:00,
2013-04-21 13:19:00,51.5,31.0,30.52,SW,226,1.0,4.0,46,0.00,,,0.00,weatherlink.com 1.10,2013-04-21 17:19:00,
2013-04-21 13:34:00,52.0,35.0,30.52,West,280,3.0,5.0,52,0.00,,,0.00,weatherlink.com 1.10,2013-04-21 17:34:00,
2013-04-21 13:49:00,50.4,32.0,30.52,WNW,291,2.0,6.0,49,0.00,,,0.00,weatherlink.com 1.10,2013-04-21 17:49:00,
2013-04-21 14:04:00,49.4,34.0,30.52,WNW,293,4.0,7.0,55,0.00,,,0.00,weatherlink.com 1.10,2013-04-21 18:04:00,
2013-04-21 14:19:00,48.7,33.0,30.52,WNW,288,5.0,8.0,56,0.00,,,0.00,weatherlink.com 1.10,2013-04-21 18:19:00,
2013-04-21 14:34:00,49.7,34.0,30.52,SW,236,1.0,7.0,56,0.00,,,0.00,weatherlink.com 1.10,2013-04-21 18:34:00,
2013-04-21 14:49:00,49.8,33.0,30.52,West,271,3.0,5.0,53,0.00,,,0.00,weatherlink.com 1.10,2013-04-21 18:49:00,
2013-04-21 15:04:00,49.4,35.0,30.52,WSW,257,2.0,7.0,57,0.00,,,0.00,weatherlink.com 1.10,2013-04-21 19:04:00,
2013-04-21 15:19:00,49.9,34.0,30.52,West,262,1.0,7.0,55,0.00,,,0.00,weatherlink.com 1.10,2013-04-21 19:19:00,
2013-04-21 15:34:00,50.3,34.0,30.53,WSW,238,1.0,5.0,54,0.00,,,0.00,weatherlink.com 1.10,2013-04-21 19:34:00,
2013-04-21 15:49:00,53.0,36.0,30.53,SSW,212,0.0,3.0,52,0.00,,,0.00,weatherlink.com 1.10,2013-04-21 19:49:00,
2013-04-21 16:04:00,50.0,36.0,30.53,SSE,162,6.0,7.0,58,0.00,,,0.00,weatherlink.com 1.10,2013-04-21 20:04:00,
2013-04-21 16:19:00,48.6,34.0,30.53,SSE,165,3.0,6.0,58,0.00,,,0.00,weatherlink.com 1.10,2013-04-21 20:19:00,
2013-04-21 16:34:00,47.8,34.0,30.53,ESE,113,4.0,7.0,60,0.00,,,0.00,weatherlink.com 1.10,2013-04-21 20:34:00,
2013-04-21 16:49:00,47.8,34.0,30.53,SW,228,1.0,6.0,60,0.00,,,0.00,weatherlink.com 1.10,2013-04-21 20:49:00,
2013-04-21 17:04:00,50.5,36.0,30.53,SSW,212,1.0,4.0,57,0.00,,,0.00,weatherlink.com 1.10,2013-04-21 21:04:00,
2013-04-21 17:19:00,48.4,32.0,30.54,WSW,239,2.0,4.0,54,0.00,,,0.00,weatherlink.com 1.10,2013-04-21 21:19:00,
2013-04-21 17:34:00,48.5,33.0,30.54,West,276,2.0,4.0,55,0.00,,,0.00,weatherlink.com 1.10,2013-04-21 21:34:00,
2013-04-21 17:49:00,49.0,34.0,30.54,WSW,257,2.0,4.0,56,0.00,,,0.00,weatherlink.com 1.10,2013-04-21 21:49:00,
2013-04-21 18:04:00,48.7,35.0,30.55,SW,235,1.0,3.0,60,0.00,,,0.00,weatherlink.com 1.10,2013-04-21 22:04:00,
2013-04-21 18:19:00,48.1,35.0,30.55,West,271,3.0,5.0,62,0.00,,,0.00,weatherlink.com 1.10,2013-04-21 22:19:00,
2013-04-21 18:34:00,47.1,35.0,30.56,West,260,2.0,4.0,62,0.00,,,0.00,weatherlink.com 1.10,2013-04-21 22:34:00,
2013-04-21 18:49:00,46.1,35.0,30.56,WSW,239,0.0,3.0,65,0.00,,,0.00,weatherlink.com 1.10,2013-04-21 22:49:00,
2013-04-21 19:04:00,45.2,35.0,30.57,SSW,193,0.0,2.0,67,0.00,,,0.00,weatherlink.com 1.10,2013-04-21 23:04:00,
2013-04-21 19:19:00,44.0,35.0,30.58,SSE,162,1.0,2.0,72,0.00,,,0.00,weatherlink.com 1.10,2013-04-21 23:19:00,
2013-04-21 19:35:00,43.1,35.0,30.59,SE,141,3.0,6.0,72,0.00,,,0.00,weatherlink.com 1.10,2013-04-21 23:35:00,
2013-04-21 19:49:00,42.7,34.0,30.59,South,169,2.0,5.0,71,0.00,,,0.00,weatherlink.com 1.10,2013-04-21 23:49:00,
2013-04-21 20:04:00,42.6,33.0,30.60,SSE,166,2.0,5.0,70,0.00,,,0.00,weatherlink.com 1.10,2013-04-22 00:04:00,
2013-04-21 20:19:00,42.4,34.0,30.61,ESE,115,3.0,4.0,71,0.00,,,0.00,weatherlink.com 1.10,2013-04-22 00:19:00,
2013-04-21 20:34:00,42.2,33.0,30.62,SE,138,2.0,5.0,69,0.00,,,0.00,weatherlink.com 1.10,2013-04-22 00:34:00,
2013-04-21 20:49:00,42.1,33.0,30.62,ESE,121,2.0,3.0,71,0.00,,,0.00,weatherlink.com 1.10,2013-04-22 00:49:00,
2013-04-21 21:04:00,41.9,33.0,30.62,SE,143,0.0,4.0,71,0.00,,,0.00,weatherlink.com 1.10,2013-04-22 01:04:00,
2013-04-21 21:20:00,41.8,33.0,30.63,SE,141,0.0,3.0,72,0.00,,,0.00,weatherlink.com 1.10,2013-04-22 01:20:00,
2013-04-21 21:35:00,41.6,34.0,30.63,SE,139,0.0,2.0,73,0.00,,,0.00,weatherlink.com 1.10,2013-04-22 01:35:00,
2013-04-21 21:50:00,41.6,34.0,30.64,SE,141,1.0,2.0,74,0.00,,,0.00,weatherlink.com 1.10,2013-04-22 01:50:00,
2013-04-21 22:05:00,41.6,34.0,30.64,SE,132,0.0,2.0,75,0.00,,,0.00,weatherlink.com 1.10,2013-04-22 02:05:00,
2013-04-21 22:20:00,41.8,35.0,30.64,SSE,150,1.0,3.0,76,0.00,,,0.00,weatherlink.com 1.10,2013-04-22 02:20:00,
2013-04-21 22:35:00,41.6,35.0,30.65,SSE,148,1.0,3.0,76,0.00,,,0.00,weatherlink.com 1.10,2013-04-22 02:35:00,
2013-04-21 22:50:00,41.5,34.0,30.65,SE,142,0.0,2.0,75,0.00,,,0.00,weatherlink.com 1.10,2013-04-22 02:50:00,
2013-04-21 23:05:00,41.2,34.0,30.64,SE,146,0.0,2.0,76,0.00,,,0.00,weatherlink.com 1.10,2013-04-22 03:05:00,
2013-04-21 23:20:00,41.0,34.0,30.64,SSE,150,1.0,1.0,76,0.00,,,0.00,weatherlink.com 1.10,2013-04-22 03:20:00,
2013-04-21 23:35:00,40.8,34.0,30.64,ESE,106,0.0,1.0,76,0.00,,,0.00,weatherlink.com 1.10,2013-04-22 03:35:00,
2013-04-21 23:50:00,40.3,34.0,30.64,SE,143,0.0,1.0,78,0.00,,,0.00,weatherlink.com 1.10,2013-04-22 03:50:00,